sensor_id;sensor_type;location;lat;lon;timestamp;P1;durP1;ratioP1;P2;durP2;ratioP2
37164;SDS011;23057;48.554;14.454;2023-11-19T00:02:10;7.95;;;5.80;;
37164;SDS011;23057;48.554;14.454;2023-11-19T00:04:40;8.48;;;5.30;;
37164;SDS011;23057;48.554;14.454;2023-11-19T00:07:11;9.95;;;4.82;;
37164;SDS011;23057;48.554;14.454;2023-11-19T00:09:43;7.13;;;4.80;;
37164;SDS011;23057;48.554;14.454;2023-11-19T00:12:14;6.55;;;4.47;;
37164;SDS011;23057;48.554;14.454;2023-11-19T00:14:46;6.60;;;4.85;;
37164;SDS011;23057;48.554;14.454;2023-11-19T00:17:16;6.18;;;4.47;;
37164;SDS011;23057;48.554;14.454;2023-11-19T00:19:47;6.75;;;4.55;;
37164;SDS011;23057;48.554;14.454;2023-11-19T00:22:21;6.15;;;4.70;;
37164;SDS011;23057;48.554;14.454;2023-11-19T00:24:52;6.07;;;4.65;;
37164;SDS011;23057;48.554;14.454;2023-11-19T00:27:23;6.38;;;4.82;;
37164;SDS011;23057;48.554;14.454;2023-11-19T00:29:53;6.63;;;3.97;;
37164;SDS011;23057;48.554;14.454;2023-11-19T00:32:24;4.85;;;3.75;;
37164;SDS011;23057;48.554;14.454;2023-11-19T00:34:55;6.68;;;4.05;;
37164;SDS011;23057;48.554;14.454;2023-11-19T00:37:26;5.40;;;4.30;;
37164;SDS011;23057;48.554;14.454;2023-11-19T00:39:57;4.47;;;3.72;;
37164;SDS011;23057;48.554;14.454;2023-11-19T00:42:28;4.60;;;3.30;;
37164;SDS011;23057;48.554;14.454;2023-11-19T00:44:59;3.63;;;3.13;;
37164;SDS011;23057;48.554;14.454;2023-11-19T00:47:31;4.30;;;3.30;;
37164;SDS011;23057;48.554;14.454;2023-11-19T00:50:02;5.82;;;3.50;;
37164;SDS011;23057;48.554;14.454;2023-11-19T00:52:33;5.88;;;3.67;;
37164;SDS011;23057;48.554;14.454;2023-11-19T00:55:05;4.78;;;3.35;;
37164;SDS011;23057;48.554;14.454;2023-11-19T00:57:37;4.15;;;2.90;;
37164;SDS011;23057;48.554;14.454;2023-11-19T01:00:08;2.95;;;2.20;;
37164;SDS011;23057;48.554;14.454;2023-11-19T01:02:49;4.00;;;2.65;;
37164;SDS011;23057;48.554;14.454;2023-11-19T01:05:20;2.83;;;2.30;;
37164;SDS011;23057;48.554;14.454;2023-11-19T01:07:52;3.83;;;2.65;;
37164;SDS011;23057;48.554;14.454;2023-11-19T01:10:23;2.53;;;2.17;;
37164;SDS011;23057;48.554;14.454;2023-11-19T01:12:55;2.85;;;2.28;;
37164;SDS011;23057;48.554;14.454;2023-11-19T01:15:27;3.03;;;2.33;;
37164;SDS011;23057;48.554;14.454;2023-11-19T01:17:58;3.67;;;2.30;;
37164;SDS011;23057;48.554;14.454;2023-11-19T01:20:29;2.75;;;2.45;;
37164;SDS011;23057;48.554;14.454;2023-11-19T01:22:59;3.95;;;3.03;;
37164;SDS011;23057;48.554;14.454;2023-11-19T01:25:30;3.75;;;2.72;;
37164;SDS011;23057;48.554;14.454;2023-11-19T01:28:01;3.42;;;2.58;;
37164;SDS011;23057;48.554;14.454;2023-11-19T01:30:32;2.65;;;2.17;;
37164;SDS011;23057;48.554;14.454;2023-11-19T01:33:03;3.05;;;2.42;;
37164;SDS011;23057;48.554;14.454;2023-11-19T01:35:34;3.70;;;2.67;;
37164;SDS011;23057;48.554;14.454;2023-11-19T01:38:05;3.17;;;2.40;;
37164;SDS011;23057;48.554;14.454;2023-11-19T01:40:36;2.45;;;2.00;;
37164;SDS011;23057;48.554;14.454;2023-11-19T01:43:09;3.30;;;2.60;;
37164;SDS011;23057;48.554;14.454;2023-11-19T01:45:45;3.33;;;2.97;;
37164;SDS011;23057;48.554;14.454;2023-11-19T01:48:16;3.28;;;2.15;;
37164;SDS011;23057;48.554;14.454;2023-11-19T01:50:47;3.00;;;2.40;;
37164;SDS011;23057;48.554;14.454;2023-11-19T01:53:18;2.40;;;2.00;;
37164;SDS011;23057;48.554;14.454;2023-11-19T01:55:50;2.75;;;2.20;;
37164;SDS011;23057;48.554;14.454;2023-11-19T01:58:22;3.03;;;2.10;;
37164;SDS011;23057;48.554;14.454;2023-11-19T02:00:54;2.97;;;2.03;;
37164;SDS011;23057;48.554;14.454;2023-11-19T02:03:26;4.53;;;2.40;;
37164;SDS011;23057;48.554;14.454;2023-11-19T02:05:59;4.47;;;2.72;;
37164;SDS011;23057;48.554;14.454;2023-11-19T02:08:31;3.00;;;2.38;;
37164;SDS011;23057;48.554;14.454;2023-11-19T02:11:02;3.00;;;1.90;;
37164;SDS011;23057;48.554;14.454;2023-11-19T02:13:33;2.20;;;1.95;;
37164;SDS011;23057;48.554;14.454;2023-11-19T02:16:07;2.95;;;2.03;;
37164;SDS011;23057;48.554;14.454;2023-11-19T02:18:40;2.78;;;1.90;;
37164;SDS011;23057;48.554;14.454;2023-11-19T02:21:11;2.72;;;1.85;;
37164;SDS011;23057;48.554;14.454;2023-11-19T02:23:44;3.63;;;2.30;;
37164;SDS011;23057;48.554;14.454;2023-11-19T02:26:26;2.75;;;2.08;;
37164;SDS011;23057;48.554;14.454;2023-11-19T02:29:10;2.47;;;1.80;;
37164;SDS011;23057;48.554;14.454;2023-11-19T02:31:43;2.42;;;2.05;;
37164;SDS011;23057;48.554;14.454;2023-11-19T02:34:13;2.95;;;1.98;;
37164;SDS011;23057;48.554;14.454;2023-11-19T02:36:44;3.75;;;2.47;;
37164;SDS011;23057;48.554;14.454;2023-11-19T02:39:17;5.18;;;1.92;;
37164;SDS011;23057;48.554;14.454;2023-11-19T02:41:51;4.47;;;1.88;;
37164;SDS011;23057;48.554;14.454;2023-11-19T02:44:23;3.03;;;1.83;;
37164;SDS011;23057;48.554;14.454;2023-11-19T02:46:54;8.63;;;2.55;;
37164;SDS011;23057;48.554;14.454;2023-11-19T02:49:24;11.95;;;2.00;;
37164;SDS011;23057;48.554;14.454;2023-11-19T02:51:56;2.60;;;1.98;;
37164;SDS011;23057;48.554;14.454;2023-11-19T02:54:29;2.63;;;1.90;;
37164;SDS011;23057;48.554;14.454;2023-11-19T02:57:00;3.10;;;1.95;;
37164;SDS011;23057;48.554;14.454;2023-11-19T02:59:35;2.25;;;1.85;;
37164;SDS011;23057;48.554;14.454;2023-11-19T03:02:11;2.90;;;2.30;;
37164;SDS011;23057;48.554;14.454;2023-11-19T03:04:42;9.15;;;2.42;;
37164;SDS011;23057;48.554;14.454;2023-11-19T03:07:15;2.75;;;2.38;;
37164;SDS011;23057;48.554;14.454;2023-11-19T03:09:47;3.40;;;2.25;;
37164;SDS011;23057;48.554;14.454;2023-11-19T03:12:19;4.97;;;1.88;;
37164;SDS011;23057;48.554;14.454;2023-11-19T03:14:50;9.07;;;2.25;;
37164;SDS011;23057;48.554;14.454;2023-11-19T03:17:21;20.08;;;3.38;;
37164;SDS011;23057;48.554;14.454;2023-11-19T03:19:54;5.10;;;2.22;;
37164;SDS011;23057;48.554;14.454;2023-11-19T03:22:24;9.23;;;2.22;;
37164;SDS011;23057;48.554;14.454;2023-11-19T03:24:55;10.18;;;2.28;;
37164;SDS011;23057;48.554;14.454;2023-11-19T03:27:27;6.28;;;2.22;;
37164;SDS011;23057;48.554;14.454;2023-11-19T03:29:57;5.38;;;2.22;;
37164;SDS011;23057;48.554;14.454;2023-11-19T03:32:28;4.97;;;2.00;;
37164;SDS011;23057;48.554;14.454;2023-11-19T03:34:59;3.30;;;2.13;;
37164;SDS011;23057;48.554;14.454;2023-11-19T03:37:30;3.00;;;1.70;;
37164;SDS011;23057;48.554;14.454;2023-11-19T03:40:02;1.63;;;1.40;;
37164;SDS011;23057;48.554;14.454;2023-11-19T03:42:34;1.92;;;1.67;;
37164;SDS011;23057;48.554;14.454;2023-11-19T03:45:07;2.03;;;1.70;;
37164;SDS011;23057;48.554;14.454;2023-11-19T03:47:39;2.22;;;1.70;;
37164;SDS011;23057;48.554;14.454;2023-11-19T03:50:09;1.95;;;1.58;;
37164;SDS011;23057;48.554;14.454;2023-11-19T03:52:40;2.00;;;1.55;;
37164;SDS011;23057;48.554;14.454;2023-11-19T03:55:11;4.20;;;1.75;;
37164;SDS011;23057;48.554;14.454;2023-11-19T03:57:42;2.70;;;1.85;;
37164;SDS011;23057;48.554;14.454;2023-11-19T04:00:13;1.80;;;1.30;;
37164;SDS011;23057;48.554;14.454;2023-11-19T04:02:44;1.85;;;1.40;;
37164;SDS011;23057;48.554;14.454;2023-11-19T04:05:16;2.80;;;1.73;;
37164;SDS011;23057;48.554;14.454;2023-11-19T04:07:48;1.50;;;1.27;;
37164;SDS011;23057;48.554;14.454;2023-11-19T04:10:19;1.35;;;1.25;;
37164;SDS011;23057;48.554;14.454;2023-11-19T04:12:52;1.58;;;1.27;;
37164;SDS011;23057;48.554;14.454;2023-11-19T04:15:23;5.13;;;1.75;;
37164;SDS011;23057;48.554;14.454;2023-11-19T04:17:54;2.35;;;1.50;;
37164;SDS011;23057;48.554;14.454;2023-11-19T04:20:24;1.15;;;1.00;;
37164;SDS011;23057;48.554;14.454;2023-11-19T04:22:55;2.15;;;1.17;;
37164;SDS011;23057;48.554;14.454;2023-11-19T04:25:26;1.25;;;1.10;;
37164;SDS011;23057;48.554;14.454;2023-11-19T04:27:57;2.90;;;1.20;;
37164;SDS011;23057;48.554;14.454;2023-11-19T04:30:28;1.90;;;1.25;;
37164;SDS011;23057;48.554;14.454;2023-11-19T04:32:59;0.90;;;0.90;;
37164;SDS011;23057;48.554;14.454;2023-11-19T04:35:29;1.63;;;0.95;;
37164;SDS011;23057;48.554;14.454;2023-11-19T04:38:00;1.05;;;0.93;;
37164;SDS011;23057;48.554;14.454;2023-11-19T04:40:31;1.15;;;0.95;;
37164;SDS011;23057;48.554;14.454;2023-11-19T04:43:03;1.08;;;0.98;;
37164;SDS011;23057;48.554;14.454;2023-11-19T04:45:34;1.48;;;1.00;;
37164;SDS011;23057;48.554;14.454;2023-11-19T04:48:05;1.00;;;0.90;;
37164;SDS011;23057;48.554;14.454;2023-11-19T04:50:36;1.17;;;1.08;;
37164;SDS011;23057;48.554;14.454;2023-11-19T04:53:07;0.65;;;0.65;;
37164;SDS011;23057;48.554;14.454;2023-11-19T04:55:39;0.70;;;0.70;;
37164;SDS011;23057;48.554;14.454;2023-11-19T04:58:09;0.70;;;0.70;;
37164;SDS011;23057;48.554;14.454;2023-11-19T05:00:40;0.93;;;0.80;;
37164;SDS011;23057;48.554;14.454;2023-11-19T05:03:11;0.80;;;0.80;;
37164;SDS011;23057;48.554;14.454;2023-11-19T05:05:42;0.80;;;0.80;;
37164;SDS011;23057;48.554;14.454;2023-11-19T05:08:13;0.80;;;0.80;;
37164;SDS011;23057;48.554;14.454;2023-11-19T05:10:44;1.80;;;1.17;;
37164;SDS011;23057;48.554;14.454;2023-11-19T05:13:14;2.38;;;1.15;;
37164;SDS011;23057;48.554;14.454;2023-11-19T05:15:46;0.80;;;0.75;;
37164;SDS011;23057;48.554;14.454;2023-11-19T05:18:17;0.73;;;0.73;;
37164;SDS011;23057;48.554;14.454;2023-11-19T05:20:48;0.70;;;0.70;;
37164;SDS011;23057;48.554;14.454;2023-11-19T05:23:19;0.70;;;0.70;;
37164;SDS011;23057;48.554;14.454;2023-11-19T05:25:50;0.85;;;0.70;;
37164;SDS011;23057;48.554;14.454;2023-11-19T05:28:21;0.70;;;0.70;;
37164;SDS011;23057;48.554;14.454;2023-11-19T05:30:54;0.60;;;0.60;;
37164;SDS011;23057;48.554;14.454;2023-11-19T05:33:25;0.70;;;0.70;;
37164;SDS011;23057;48.554;14.454;2023-11-19T05:35:56;0.73;;;0.70;;
37164;SDS011;23057;48.554;14.454;2023-11-19T05:38:27;0.77;;;0.77;;
37164;SDS011;23057;48.554;14.454;2023-11-19T05:40:59;0.80;;;0.80;;
37164;SDS011;23057;48.554;14.454;2023-11-19T05:43:29;0.70;;;0.70;;
37164;SDS011;23057;48.554;14.454;2023-11-19T05:46:01;1.73;;;1.00;;
37164;SDS011;23057;48.554;14.454;2023-11-19T05:48:33;3.75;;;1.23;;
37164;SDS011;23057;48.554;14.454;2023-11-19T05:51:04;3.78;;;2.22;;
37164;SDS011;23057;48.554;14.454;2023-11-19T05:53:35;1.08;;;0.90;;
37164;SDS011;23057;48.554;14.454;2023-11-19T05:56:06;1.17;;;1.08;;
37164;SDS011;23057;48.554;14.454;2023-11-19T05:58:39;0.70;;;0.70;;
37164;SDS011;23057;48.554;14.454;2023-11-19T06:01:10;0.82;;;0.70;;
37164;SDS011;23057;48.554;14.454;2023-11-19T06:03:41;1.05;;;0.80;;
37164;SDS011;23057;48.554;14.454;2023-11-19T06:06:13;1.95;;;1.00;;
37164;SDS011;23057;48.554;14.454;2023-11-19T06:08:44;0.93;;;0.77;;
37164;SDS011;23057;48.554;14.454;2023-11-19T06:11:15;2.53;;;1.00;;
37164;SDS011;23057;48.554;14.454;2023-11-19T06:13:48;1.10;;;1.00;;
37164;SDS011;23057;48.554;14.454;2023-11-19T06:16:20;1.40;;;0.95;;
37164;SDS011;23057;48.554;14.454;2023-11-19T06:18:51;1.83;;;1.00;;
37164;SDS011;23057;48.554;14.454;2023-11-19T06:21:23;0.85;;;0.85;;
37164;SDS011;23057;48.554;14.454;2023-11-19T06:23:55;0.73;;;0.73;;
37164;SDS011;23057;48.554;14.454;2023-11-19T06:26:25;1.02;;;0.95;;
37164;SDS011;23057;48.554;14.454;2023-11-19T06:28:57;0.98;;;0.93;;
37164;SDS011;23057;48.554;14.454;2023-11-19T06:31:28;1.23;;;0.80;;
37164;SDS011;23057;48.554;14.454;2023-11-19T06:33:59;1.50;;;1.40;;
37164;SDS011;23057;48.554;14.454;2023-11-19T06:36:29;1.00;;;0.95;;
37164;SDS011;23057;48.554;14.454;2023-11-19T06:39:00;0.80;;;0.80;;
37164;SDS011;23057;48.554;14.454;2023-11-19T06:41:31;2.08;;;1.30;;
37164;SDS011;23057;48.554;14.454;2023-11-19T06:44:02;2.88;;;1.40;;
37164;SDS011;23057;48.554;14.454;2023-11-19T06:46:34;1.13;;;1.00;;
37164;SDS011;23057;48.554;14.454;2023-11-19T06:49:05;1.23;;;1.00;;
37164;SDS011;23057;48.554;14.454;2023-11-19T06:51:41;1.00;;;0.90;;
37164;SDS011;23057;48.554;14.454;2023-11-19T06:54:13;1.35;;;0.90;;
37164;SDS011;23057;48.554;14.454;2023-11-19T06:56:44;0.90;;;0.90;;
37164;SDS011;23057;48.554;14.454;2023-11-19T06:59:15;1.10;;;1.00;;
37164;SDS011;23057;48.554;14.454;2023-11-19T07:01:46;1.67;;;1.20;;
37164;SDS011;23057;48.554;14.454;2023-11-19T07:04:17;1.60;;;1.30;;
37164;SDS011;23057;48.554;14.454;2023-11-19T07:06:47;1.80;;;1.30;;
37164;SDS011;23057;48.554;14.454;2023-11-19T07:09:18;1.70;;;1.40;;
37164;SDS011;23057;48.554;14.454;2023-11-19T07:11:49;4.78;;;2.05;;
37164;SDS011;23057;48.554;14.454;2023-11-19T07:14:21;1.45;;;1.15;;
37164;SDS011;23057;48.554;14.454;2023-11-19T07:16:53;1.60;;;1.25;;
37164;SDS011;23057;48.554;14.454;2023-11-19T07:19:26;1.48;;;1.13;;
37164;SDS011;23057;48.554;14.454;2023-11-19T07:21:56;1.95;;;1.45;;
37164;SDS011;23057;48.554;14.454;2023-11-19T07:24:28;12.70;;;5.63;;
37164;SDS011;23057;48.554;14.454;2023-11-19T07:26:59;144.55;;;48.28;;
37164;SDS011;23057;48.554;14.454;2023-11-19T07:29:34;101.85;;;37.53;;
37164;SDS011;23057;48.554;14.454;2023-11-19T07:32:05;75.53;;;29.80;;
37164;SDS011;23057;48.554;14.454;2023-11-19T07:34:38;14.85;;;7.95;;
37164;SDS011;23057;48.554;14.454;2023-11-19T07:37:09;11.60;;;4.43;;
37164;SDS011;23057;48.554;14.454;2023-11-19T07:39:40;24.80;;;6.63;;
37164;SDS011;23057;48.554;14.454;2023-11-19T07:42:12;9.82;;;2.70;;
37164;SDS011;23057;48.554;14.454;2023-11-19T07:44:43;19.60;;;9.63;;
37164;SDS011;23057;48.554;14.454;2023-11-19T07:47:14;7.90;;;6.00;;
37164;SDS011;23057;48.554;14.454;2023-11-19T07:49:45;15.30;;;3.63;;
37164;SDS011;23057;48.554;14.454;2023-11-19T07:52:15;9.93;;;1.40;;
37164;SDS011;23057;48.554;14.454;2023-11-19T07:54:47;5.18;;;1.65;;
37164;SDS011;23057;48.554;14.454;2023-11-19T07:57:17;59.75;;;3.25;;
37164;SDS011;23057;48.554;14.454;2023-11-19T07:59:48;30.58;;;4.90;;
37164;SDS011;23057;48.554;14.454;2023-11-19T08:02:19;10.95;;;2.92;;
37164;SDS011;23057;48.554;14.454;2023-11-19T08:04:50;6.32;;;2.05;;
37164;SDS011;23057;48.554;14.454;2023-11-19T08:07:22;20.70;;;3.20;;
37164;SDS011;23057;48.554;14.454;2023-11-19T08:09:52;6.10;;;1.95;;
37164;SDS011;23057;48.554;14.454;2023-11-19T08:12:23;8.43;;;2.30;;
37164;SDS011;23057;48.554;14.454;2023-11-19T08:14:54;10.05;;;2.03;;
37164;SDS011;23057;48.554;14.454;2023-11-19T08:17:25;3.25;;;2.88;;
37164;SDS011;23057;48.554;14.454;2023-11-19T08:19:55;8.43;;;3.30;;
37164;SDS011;23057;48.554;14.454;2023-11-19T08:22:26;5.75;;;2.35;;
37164;SDS011;23057;48.554;14.454;2023-11-19T08:24:57;8.35;;;1.92;;
37164;SDS011;23057;48.554;14.454;2023-11-19T08:27:28;5.22;;;1.73;;
37164;SDS011;23057;48.554;14.454;2023-11-19T08:29:59;4.10;;;1.27;;
37164;SDS011;23057;48.554;14.454;2023-11-19T08:32:30;2.28;;;1.80;;
37164;SDS011;23057;48.554;14.454;2023-11-19T08:35:00;4.20;;;1.90;;
37164;SDS011;23057;48.554;14.454;2023-11-19T08:37:32;2.63;;;1.58;;
37164;SDS011;23057;48.554;14.454;2023-11-19T08:40:03;2.58;;;2.17;;
37164;SDS011;23057;48.554;14.454;2023-11-19T08:42:35;10.70;;;2.35;;
37164;SDS011;23057;48.554;14.454;2023-11-19T08:45:06;11.63;;;1.98;;
37164;SDS011;23057;48.554;14.454;2023-11-19T08:47:41;19.63;;;2.47;;
37164;SDS011;23057;48.554;14.454;2023-11-19T08:50:15;4.82;;;2.30;;
37164;SDS011;23057;48.554;14.454;2023-11-19T08:52:45;9.93;;;2.70;;
37164;SDS011;23057;48.554;14.454;2023-11-19T08:55:16;10.05;;;4.47;;
37164;SDS011;23057;48.554;14.454;2023-11-19T08:57:47;7.20;;;4.18;;
37164;SDS011;23057;48.554;14.454;2023-11-19T09:00:18;3.90;;;1.92;;
37164;SDS011;23057;48.554;14.454;2023-11-19T09:02:49;7.72;;;5.18;;
37164;SDS011;23057;48.554;14.454;2023-11-19T09:05:19;3.80;;;2.60;;
37164;SDS011;23057;48.554;14.454;2023-11-19T09:07:50;5.88;;;3.10;;
37164;SDS011;23057;48.554;14.454;2023-11-19T09:10:21;19.23;;;3.40;;
37164;SDS011;23057;48.554;14.454;2023-11-19T09:12:52;34.85;;;3.83;;
37164;SDS011;23057;48.554;14.454;2023-11-19T09:15:23;8.75;;;4.22;;
37164;SDS011;23057;48.554;14.454;2023-11-19T09:17:54;27.73;;;2.78;;
37164;SDS011;23057;48.554;14.454;2023-11-19T09:20:25;18.15;;;2.40;;
37164;SDS011;23057;48.554;14.454;2023-11-19T09:22:55;5.57;;;2.00;;
37164;SDS011;23057;48.554;14.454;2023-11-19T09:25:26;7.63;;;1.65;;
37164;SDS011;23057;48.554;14.454;2023-11-19T09:27:57;5.75;;;2.10;;
37164;SDS011;23057;48.554;14.454;2023-11-19T09:30:28;6.25;;;2.60;;
37164;SDS011;23057;48.554;14.454;2023-11-19T09:32:59;76.82;;;5.05;;
37164;SDS011;23057;48.554;14.454;2023-11-19T09:35:29;8.48;;;2.40;;
37164;SDS011;23057;48.554;14.454;2023-11-19T09:38:00;8.18;;;3.30;;
37164;SDS011;23057;48.554;14.454;2023-11-19T09:40:31;5.20;;;2.17;;
37164;SDS011;23057;48.554;14.454;2023-11-19T09:43:03;2.72;;;1.65;;
37164;SDS011;23057;48.554;14.454;2023-11-19T09:45:44;2.60;;;1.88;;
37164;SDS011;23057;48.554;14.454;2023-11-19T09:48:20;4.43;;;2.05;;
37164;SDS011;23057;48.554;14.454;2023-11-19T09:50:53;3.30;;;2.53;;
37164;SDS011;23057;48.554;14.454;2023-11-19T09:53:24;3.03;;;2.30;;
37164;SDS011;23057;48.554;14.454;2023-11-19T09:55:55;6.35;;;4.40;;
37164;SDS011;23057;48.554;14.454;2023-11-19T09:58:27;10.02;;;5.32;;
37164;SDS011;23057;48.554;14.454;2023-11-19T10:01:00;3.17;;;2.50;;
37164;SDS011;23057;48.554;14.454;2023-11-19T10:03:40;2.85;;;2.17;;
37164;SDS011;23057;48.554;14.454;2023-11-19T10:06:14;2.92;;;1.85;;
37164;SDS011;23057;48.554;14.454;2023-11-19T10:08:46;2.50;;;1.60;;
37164;SDS011;23057;48.554;14.454;2023-11-19T10:11:16;8.02;;;4.20;;
37164;SDS011;23057;48.554;14.454;2023-11-19T10:13:47;6.53;;;3.45;;
37164;SDS011;23057;48.554;14.454;2023-11-19T10:16:19;5.43;;;3.50;;
37164;SDS011;23057;48.554;14.454;2023-11-19T10:18:50;21.80;;;10.65;;
37164;SDS011;23057;48.554;14.454;2023-11-19T10:21:21;133.13;;;35.15;;
37164;SDS011;23057;48.554;14.454;2023-11-19T10:23:53;318.45;;;70.82;;
37164;SDS011;23057;48.554;14.454;2023-11-19T10:26:27;114.03;;;31.45;;
37164;SDS011;23057;48.554;14.454;2023-11-19T10:28:59;42.60;;;15.73;;
37164;SDS011;23057;48.554;14.454;2023-11-19T10:31:29;29.60;;;8.95;;
37164;SDS011;23057;48.554;14.454;2023-11-19T10:34:00;53.78;;;20.15;;
37164;SDS011;23057;48.554;14.454;2023-11-19T10:36:40;5.93;;;3.40;;
37164;SDS011;23057;48.554;14.454;2023-11-19T10:39:11;8.15;;;5.75;;
37164;SDS011;23057;48.554;14.454;2023-11-19T10:41:42;3.83;;;2.70;;
37164;SDS011;23057;48.554;14.454;2023-11-19T10:44:30;1.10;;;1.00;;
37164;SDS011;23057;48.554;14.454;2023-11-19T10:47:06;1.25;;;1.00;;
37164;SDS011;23057;48.554;14.454;2023-11-19T10:49:41;2.88;;;2.25;;
37164;SDS011;23057;48.554;14.454;2023-11-19T10:52:13;1.45;;;1.20;;
37164;SDS011;23057;48.554;14.454;2023-11-19T10:54:51;9.15;;;4.45;;
37164;SDS011;23057;48.554;14.454;2023-11-19T10:57:30;30.13;;;12.02;;
37164;SDS011;23057;48.554;14.454;2023-11-19T11:00:07;2.97;;;1.95;;
37164;SDS011;23057;48.554;14.454;2023-11-19T11:02:43;2.70;;;2.00;;
37164;SDS011;23057;48.554;14.454;2023-11-19T11:05:24;1.73;;;1.20;;
37164;SDS011;23057;48.554;14.454;2023-11-19T11:07:56;1.70;;;1.38;;
37164;SDS011;23057;48.554;14.454;2023-11-19T11:10:30;0.93;;;0.85;;
37164;SDS011;23057;48.554;14.454;2023-11-19T11:13:09;0.95;;;0.85;;
37164;SDS011;23057;48.554;14.454;2023-11-19T11:15:44;0.63;;;0.60;;
37164;SDS011;23057;48.554;14.454;2023-11-19T11:18:17;3.72;;;2.17;;
37164;SDS011;23057;48.554;14.454;2023-11-19T11:20:48;4.90;;;4.43;;
37164;SDS011;23057;48.554;14.454;2023-11-19T11:27:14;21.83;;;18.35;;
37164;SDS011;23057;48.554;14.454;2023-11-19T11:30:43;1.70;;;1.10;;
37164;SDS011;23057;48.554;14.454;2023-11-19T11:36:30;1.17;;;1.08;;
37164;SDS011;23057;48.554;14.454;2023-11-19T11:39:40;1.35;;;1.17;;
37164;SDS011;23057;48.554;14.454;2023-11-19T11:45:06;1.35;;;1.25;;
37164;SDS011;23057;48.554;14.454;2023-11-19T11:50:26;2.55;;;1.75;;
37164;SDS011;23057;48.554;14.454;2023-11-19T11:58:22;7.80;;;1.35;;
37164;SDS011;23057;48.554;14.454;2023-11-19T12:01:01;3.60;;;2.42;;
37164;SDS011;23057;48.554;14.454;2023-11-19T12:03:36;2.90;;;2.35;;
37164;SDS011;23057;48.554;14.454;2023-11-19T12:06:08;3.70;;;2.17;;
37164;SDS011;23057;48.554;14.454;2023-11-19T12:08:38;2.88;;;2.10;;
37164;SDS011;23057;48.554;14.454;2023-11-19T12:11:11;22.15;;;11.40;;
37164;SDS011;23057;48.554;14.454;2023-11-19T12:13:54;3.95;;;2.90;;
37164;SDS011;23057;48.554;14.454;2023-11-19T12:16:28;11.63;;;6.40;;
37164;SDS011;23057;48.554;14.454;2023-11-19T12:19:02;8.85;;;5.72;;
37164;SDS011;23057;48.554;14.454;2023-11-19T12:21:37;5.63;;;5.13;;
37164;SDS011;23057;48.554;14.454;2023-11-19T12:24:08;5.97;;;5.38;;
37164;SDS011;23057;48.554;14.454;2023-11-19T12:26:41;2.72;;;2.35;;
37164;SDS011;23057;48.554;14.454;2023-11-19T12:29:14;4.85;;;3.40;;
37164;SDS011;23057;48.554;14.454;2023-11-19T12:31:53;7.35;;;6.07;;
37164;SDS011;23057;48.554;14.454;2023-11-19T12:34:25;2.17;;;1.95;;
37164;SDS011;23057;48.554;14.454;2023-11-19T12:36:57;2.90;;;2.60;;
37164;SDS011;23057;48.554;14.454;2023-11-19T12:39:31;1.92;;;1.50;;
37164;SDS011;23057;48.554;14.454;2023-11-19T12:42:02;2.53;;;1.60;;
37164;SDS011;23057;48.554;14.454;2023-11-19T12:44:33;2.95;;;2.65;;
37164;SDS011;23057;48.554;14.454;2023-11-19T12:47:05;6.00;;;2.55;;
37164;SDS011;23057;48.554;14.454;2023-11-19T12:49:37;3.75;;;1.60;;
37164;SDS011;23057;48.554;14.454;2023-11-19T12:52:11;4.00;;;2.38;;
37164;SDS011;23057;48.554;14.454;2023-11-19T12:54:43;2.42;;;1.40;;
37164;SDS011;23057;48.554;14.454;2023-11-19T12:57:14;2.25;;;0.95;;
37164;SDS011;23057;48.554;14.454;2023-11-19T12:59:55;2.40;;;0.95;;
37164;SDS011;23057;48.554;14.454;2023-11-19T13:02:44;0.60;;;0.60;;
37164;SDS011;23057;48.554;14.454;2023-11-19T13:05:28;0.68;;;0.63;;
37164;SDS011;23057;48.554;14.454;2023-11-19T13:08:03;1.10;;;0.90;;
37164;SDS011;23057;48.554;14.454;2023-11-19T13:10:50;3.00;;;2.70;;
37164;SDS011;23057;48.554;14.454;2023-11-19T13:13:25;1.38;;;1.27;;
37164;SDS011;23057;48.554;14.454;2023-11-19T13:16:03;3.15;;;1.30;;
37164;SDS011;23057;48.554;14.454;2023-11-19T13:18:35;0.88;;;0.88;;
37164;SDS011;23057;48.554;14.454;2023-11-19T13:21:06;2.80;;;0.75;;
37164;SDS011;23057;48.554;14.454;2023-11-19T13:23:37;1.05;;;0.82;;
37164;SDS011;23057;48.554;14.454;2023-11-19T13:26:08;1.02;;;0.93;;
37164;SDS011;23057;48.554;14.454;2023-11-19T13:28:41;0.50;;;0.50;;
37164;SDS011;23057;48.554;14.454;2023-11-19T13:31:12;0.63;;;0.60;;
37164;SDS011;23057;48.554;14.454;2023-11-19T13:33:43;1.70;;;1.17;;
37164;SDS011;23057;48.554;14.454;2023-11-19T13:36:14;1.85;;;1.20;;
37164;SDS011;23057;48.554;14.454;2023-11-19T13:38:45;1.25;;;0.98;;
37164;SDS011;23057;48.554;14.454;2023-11-19T13:41:16;0.75;;;0.75;;
37164;SDS011;23057;48.554;14.454;2023-11-19T13:43:47;0.60;;;0.60;;
37164;SDS011;23057;48.554;14.454;2023-11-19T13:46:18;0.60;;;0.60;;
37164;SDS011;23057;48.554;14.454;2023-11-19T13:48:50;1.27;;;0.85;;
37164;SDS011;23057;48.554;14.454;2023-11-19T13:51:20;0.77;;;0.77;;
37164;SDS011;23057;48.554;14.454;2023-11-19T13:53:51;1.30;;;0.60;;
37164;SDS011;23057;48.554;14.454;2023-11-19T13:56:22;1.08;;;0.65;;
37164;SDS011;23057;48.554;14.454;2023-11-19T13:58:53;0.90;;;0.80;;
37164;SDS011;23057;48.554;14.454;2023-11-19T14:01:25;1.08;;;0.60;;
37164;SDS011;23057;48.554;14.454;2023-11-19T14:03:56;1.00;;;0.60;;
37164;SDS011;23057;48.554;14.454;2023-11-19T14:06:27;1.13;;;0.80;;
37164;SDS011;23057;48.554;14.454;2023-11-19T14:08:58;1.10;;;0.70;;
37164;SDS011;23057;48.554;14.454;2023-11-19T14:11:29;1.52;;;1.42;;
37164;SDS011;23057;48.554;14.454;2023-11-19T14:13:59;1.00;;;0.90;;
37164;SDS011;23057;48.554;14.454;2023-11-19T14:16:30;4.68;;;0.73;;
37164;SDS011;23057;48.554;14.454;2023-11-19T14:19:02;1.65;;;0.82;;
37164;SDS011;23057;48.554;14.454;2023-11-19T14:21:33;2.05;;;0.77;;
37164;SDS011;23057;48.554;14.454;2023-11-19T14:24:04;1.73;;;0.80;;
37164;SDS011;23057;48.554;14.454;2023-11-19T14:26:35;1.25;;;0.90;;
37164;SDS011;23057;48.554;14.454;2023-11-19T14:29:06;0.85;;;0.70;;
37164;SDS011;23057;48.554;14.454;2023-11-19T14:31:37;2.90;;;1.00;;
37164;SDS011;23057;48.554;14.454;2023-11-19T14:34:08;0.75;;;0.70;;
37164;SDS011;23057;48.554;14.454;2023-11-19T14:36:39;1.05;;;0.70;;
37164;SDS011;23057;48.554;14.454;2023-11-19T14:39:10;1.63;;;0.80;;
37164;SDS011;23057;48.554;14.454;2023-11-19T14:41:42;0.70;;;0.70;;
37164;SDS011;23057;48.554;14.454;2023-11-19T14:44:14;1.02;;;0.82;;
37164;SDS011;23057;48.554;14.454;2023-11-19T14:46:47;1.00;;;0.75;;
37164;SDS011;23057;48.554;14.454;2023-11-19T14:49:20;0.88;;;0.70;;
37164;SDS011;23057;48.554;14.454;2023-11-19T14:51:51;1.63;;;0.70;;
37164;SDS011;23057;48.554;14.454;2023-11-19T14:54:22;3.13;;;0.80;;
37164;SDS011;23057;48.554;14.454;2023-11-19T14:56:54;1.90;;;0.80;;
37164;SDS011;23057;48.554;14.454;2023-11-19T14:59:25;1.40;;;0.80;;
37164;SDS011;23057;48.554;14.454;2023-11-19T15:01:55;1.75;;;0.88;;
37164;SDS011;23057;48.554;14.454;2023-11-19T15:04:27;2.67;;;0.93;;
37164;SDS011;23057;48.554;14.454;2023-11-19T15:06:58;1.05;;;0.77;;
37164;SDS011;23057;48.554;14.454;2023-11-19T15:09:30;1.20;;;0.80;;
37164;SDS011;23057;48.554;14.454;2023-11-19T15:12:03;1.13;;;0.70;;
37164;SDS011;23057;48.554;14.454;2023-11-19T15:14:35;1.52;;;1.00;;
37164;SDS011;23057;48.554;14.454;2023-11-19T15:17:06;0.98;;;0.82;;
37164;SDS011;23057;48.554;14.454;2023-11-19T15:19:38;0.80;;;0.80;;
37164;SDS011;23057;48.554;14.454;2023-11-19T15:22:09;1.00;;;0.70;;